»·PEaware :: N825TJ KBUR-KIFP

N825TJ :: KBUR-KIFP

FLIGHT INFORMATION

Flight Status: Arrived
Operator: Privately registered:
United States
More flights under this callsign
Pilot: Tyler J. (19619)
Aircraft: CESSNA 525A CITATION CJ2
(C25A)
More flights by this aircraft type
Origin: KBUR Bob Hope-Burbank
United States
Destination: KIFP Laughlin/Bullhead Intl
United States
More flights between these airports :: More routes between these airports
Route: +SLAPP1 HEC GFS
File this flight plan on PilotEdge
Remarks:
Altitude:
(Current/Filed)
29,000ft
Speed:
(Current/Filed)
400kts
Departed: 19-Aug-18 09:20 AM
Arrived: 19-Aug-18 10:06 AM
Distance/Time
Traveled:
196nm/0:45
Distance/Time
To Go:
Arrived

Flight Plot

Page will automatically refresh every two minutes.

Flight plan parsing failed; only flown route is shown


Map Options




Map Legend


Flown Route
Filed Route
Departure Airport
Arrival Airport
Navaid (VOR, NDB)
Fix

Horizontal Profiles

Position Reports

Time Latitude Longitude Heading Altitude Ground
Speed
19-Aug-18 09:04 34.200182 -118.365905 0 782ft 0kts
19-Aug-18 09:05 34.200182 -118.365905 0 782ft 0kts
19-Aug-18 09:06 34.200182 -118.365905 0 782ft 0kts
19-Aug-18 09:07 34.200182 -118.365905 0 782ft 0kts
19-Aug-18 09:08 34.200182 -118.365905 0 782ft 0kts
19-Aug-18 09:09 34.200183 -118.365905 0 782ft 0kts
19-Aug-18 09:10 34.200185 -118.365905 0 782ft 0kts
19-Aug-18 09:11 34.200187 -118.365905 0 782ft 0kts
19-Aug-18 09:12 34.200189 -118.365905 0 782ft 0kts
19-Aug-18 09:13 34.200191 -118.365905 0 782ft 0kts
19-Aug-18 09:14 34.200059 -118.365701 152 782ft 0kts
19-Aug-18 09:15 34.199689 -118.365379 194 782ft 3kts
19-Aug-18 09:16 34.198972 -118.360384 91 782ft 22kts
19-Aug-18 09:17 34.202991 -118.358850 347 782ft 23kts
19-Aug-18 09:18 34.208515 -118.360381 345 782ft 20kts
19-Aug-18 09:19 34.211915 -118.361160 52 782ft 0kts
19-Aug-18 09:20 34.211919 -118.361153 52 782ft 0kts
19-Aug-18 09:21 34.204942 -118.358472 166 782ft 128kts
19-Aug-18 09:22 34.153054 -118.365731 218 4340ft 231kts
19-Aug-18 09:23 34.142184 -118.438499 314 7438ft 261kts
19-Aug-18 09:24 34.209199 -118.429343 20 8918ft 245kts
19-Aug-18 09:25 34.271174 -118.409826 25 8858ft 259kts
19-Aug-18 09:26 34.343016 -118.370101 16 11457ft 254kts
19-Aug-18 09:27 34.416393 -118.353380 17 14163ft 291kts
19-Aug-18 09:28 34.489412 -118.304571 37 18001ft 322kts
19-Aug-18 09:29 34.560854 -118.235184 40 21238ft 334kts
19-Aug-18 09:30 34.634774 -118.160566 42 23082ft 368kts
19-Aug-18 09:31 34.682603 -118.045770 77 23085ft 380kts
19-Aug-18 09:32 34.696768 -117.915205 86 23102ft 391kts
19-Aug-18 09:33 34.703097 -117.783730 87 25714ft 395kts
19-Aug-18 09:34 34.708809 -117.648589 87 27487ft 405kts
19-Aug-18 09:35 34.715009 -117.510321 85 28742ft 413kts
19-Aug-18 09:36 34.725757 -117.369361 84 29123ft 425kts
19-Aug-18 09:37 34.737479 -117.226391 84 29121ft 423kts
19-Aug-18 09:38 34.748884 -117.084792 84 29147ft 420kts
19-Aug-18 09:39 34.760097 -116.943543 84 29144ft 419kts
19-Aug-18 09:40 34.770944 -116.803153 85 29150ft 416kts
19-Aug-18 09:41 34.781666 -116.663028 84 29149ft 414kts
19-Aug-18 09:42 34.792298 -116.523708 84 29146ft 414kts
19-Aug-18 09:43 34.817213 -116.387156 73 28905ft 412kts
19-Aug-18 09:44 34.850490 -116.259097 71 27577ft 406kts
19-Aug-18 09:45 34.884743 -116.130601 71 26173ft 386kts
19-Aug-18 09:46 34.917277 -116.007882 73 24774ft 381kts
19-Aug-18 09:47 34.950048 -115.882718 73 23127ft 395kts
19-Aug-18 09:48 34.973225 -115.773909 64 21294ft 284kts
19-Aug-18 09:49 35.011621 -115.680978 62 19886ft 301kts
19-Aug-18 09:50 35.047252 -115.597027 62 17767ft 257kts
19-Aug-18 09:51 35.080623 -115.519848 62 15368ft 257kts
19-Aug-18 09:52 35.114861 -115.443297 62 12978ft 258kts
19-Aug-18 09:53 35.149522 -115.365710 62 10578ft 261kts
19-Aug-18 09:54 35.183592 -115.288204 62 9156ft 259kts
19-Aug-18 09:55 35.217842 -115.211031 62 9064ft 259kts
19-Aug-18 09:56 35.252759 -115.132459 62 9068ft 276kts
19-Aug-18 09:57 35.289869 -115.049086 62 9041ft 278kts
19-Aug-18 09:58 35.327004 -114.965887 62 9039ft 278kts
19-Aug-18 09:59 35.364187 -114.882588 62 9052ft 278kts
19-Aug-18 10:00 35.400619 -114.798221 74 9034ft 285kts
19-Aug-18 10:01 35.364639 -114.721932 140 9040ft 272kts
19-Aug-18 10:02 35.304928 -114.662836 142 9036ft 281kts
19-Aug-18 10:03 35.274147 -114.591775 75 8159ft 240kts
19-Aug-18 10:04 35.248675 -114.540532 184 5775ft 200kts
19-Aug-18 10:05 35.210725 -114.566563 172 2866ft 134kts
19-Aug-18 10:06 35.177875 -114.561214 176 1001ft 112kts
19-Aug-18 10:07 35.156201 -114.559396 171 699ft 29kts
19-Aug-18 10:08 35.153704 -114.558438 84 699ft 3kts
19-Aug-18 10:09 35.159400 -114.558518 356 699ft 21kts
19-Aug-18 10:10 35.162351 -114.556367 25 699ft 4kts

Navigation Log

Ident Type
Flight plan parsing failed, navigation log unavailable